Time;durP1;ratioP1;P1;durP2;ratioP2;P2;SDS_P1;SDS_P2;PMS_P1;PMS_P2;Temp;Humidity;BMP_temperature;BMP_pressure;BME280_temperature;BME280_humidity;BME280_pressure;Samples;Min_cycle;Max_cycle;Signal;HPM_P1;HPM_P2
2020/12/03 00:00:52;;;;;;;64.43;26.70;;;;;;;-1.91;76.44;95174.41;5093544;28;20455;-54
2020/12/03 00:03:28;;;;;;;57.65;26.45;;;;;;;-2.00;76.74;95171.53;5093776;28;20044;-51
2020/12/03 00:06:02;;;;;;;66.13;27.52;;;;;;;-2.06;76.95;95169.16;5092751;28;20072;-52
2020/12/03 00:08:29;;;;;;;;;;;;;;;-2.15;77.28;95176.88;5093746;28;20056;-46
2020/12/03 00:10:55;;;;;;;70.40;27.17;;;;;;;-2.27;77.84;95187.00;5093389;28;20346;-48
2020/12/03 00:13:25;;;;;;;62.90;27.48;;;;;;;-2.32;77.71;95189.66;5093258;28;20048;-49
2020/12/03 00:15:56;;;;;;;58.30;26.90;;;;;;;-2.19;77.25;95195.19;5092470;28;20439;-45
2020/12/03 00:18:27;;;;;;;64.60;26.67;;;;;;;-2.19;77.33;95183.78;5092139;28;20081;-50
2020/12/03 00:20:55;;;;;;;61.72;26.27;;;;;;;-2.00;77.02;95186.66;5093065;28;20059;-47
2020/12/03 00:23:37;;;;;;;61.00;25.65;;;;;;;-1.75;75.78;95185.75;5093247;28;20551;-50
2020/12/03 00:26:04;;;;;;;59.92;26.02;;;;;;;-2.01;76.35;95190.38;5092177;28;20131;-51
2020/12/03 00:28:36;;;;;;;58.60;26.08;;;;;;;-1.72;75.73;95188.66;5092955;28;20412;-46
2020/12/03 00:31:04;;;;;;;59.08;25.95;;;;;;;-1.50;74.77;95196.22;5092972;28;20052;-53
2020/12/03 00:33:31;;;;;;;56.40;24.65;;;;;;;-1.72;75.19;95182.56;5092744;28;20048;-51
2020/12/03 00:35:57;;;;;;;61.72;25.13;;;;;;;-1.59;75.22;95191.75;5092069;28;20125;-52
2020/12/03 00:38:25;;;;;;;56.55;26.83;;;;;;;-1.33;73.95;95182.63;5092953;28;20129;-50
2020/12/03 00:40:52;;;;;;;62.72;25.83;;;;;;;-1.33;73.64;95169.34;5092775;28;20059;-51
2020/12/03 00:43:19;;;;;;;58.42;27.67;;;;;;;-1.46;74.26;95184.00;5092713;28;20075;-53
2020/12/03 00:45:47;;;;;;;53.60;24.55;;;;;;;-1.41;73.71;95161.94;5090506;28;20044;-50
2020/12/03 00:48:18;;;;;;;57.67;25.27;;;;;;;-1.65;74.10;95170.59;5091375;28;20047;-50
2020/12/03 00:50:46;;;;;;;56.28;26.00;;;;;;;-1.45;74.07;95169.66;5091378;28;20131;-52
2020/12/03 00:53:14;;;;;;;57.05;26.42;;;;;;;-1.74;75.03;95163.47;5091201;28;20492;-49
2020/12/03 00:55:42;;;;;;;51.58;24.33;;;;;;;-1.54;74.34;95179.28;5090634;28;20677;-46
2020/12/03 00:58:10;;;;;;;52.35;24.67;;;;;;;-1.35;73.54;95173.34;5092321;28;20071;-49
2020/12/03 01:00:37;;;;;;;50.28;24.85;;;;;;;-1.41;73.50;95172.56;5092133;28;20052;-49
2020/12/03 01:03:04;;;;;;;47.50;24.30;;;;;;;-1.52;73.54;95177.16;5092586;28;20113;-47
2020/12/03 01:05:30;;;;;;;55.78;25.42;;;;;;;-1.41;73.02;95168.03;5091472;28;20047;-49
2020/12/03 01:07:57;;;;;;;51.05;24.35;;;;;;;-1.42;73.40;95182.38;5092132;28;20424;-47
2020/12/03 01:10:30;;;;;;;54.53;25.10;;;;;;;-1.36;73.81;95177.84;5092054;28;20105;-49
2020/12/03 01:12:57;;;;;;;59.75;25.75;;;;;;;-1.62;74.53;95161.28;5092012;28;20087;-47
2020/12/03 01:15:24;;;;;;;64.03;26.73;;;;;;;-1.23;73.92;95173.78;5091412;28;20458;-48
2020/12/03 01:17:52;;;;;;;58.38;26.38;;;;;;;-1.26;73.87;95174.34;5092056;28;20055;-48
2020/12/03 01:20:22;;;;;;;58.55;27.17;;;;;;;-1.36;74.47;95180.50;5092101;28;20164;-46
2020/12/03 01:22:49;;;;;;;56.60;26.55;;;;;;;-1.13;73.93;95176.38;5092276;28;20079;-48
2020/12/03 01:25:18;;;;;;;60.80;27.30;;;;;;;-1.26;74.30;95166.38;5091325;28;20079;-50
2020/12/03 01:27:45;;;;;;;59.67;26.77;;;;;;;-1.16;74.21;95158.34;5091783;28;20117;-51
2020/12/03 01:30:15;;;;;;;54.90;25.08;;;;;;;-1.31;74.78;95161.88;5091581;28;20101;-49
2020/12/03 01:32:42;;;;;;;58.78;25.42;;;;;;;-1.52;75.62;95144.53;5091820;28;20075;-50
2020/12/03 01:35:11;;;;;;;61.03;26.08;;;;;;;-1.48;76.05;95140.25;5073625;28;20132;-46
2020/12/03 01:37:38;;;;;;;56.35;27.13;;;;;;;-1.07;74.64;95142.59;5089784;28;20157;-47
2020/12/03 01:40:08;;;;;;;61.08;26.95;;;;;;;-0.91;74.25;95154.72;5091604;28;20101;-48
2020/12/03 01:42:39;;;;;;;61.85;26.90;;;;;;;-0.97;74.14;95159.25;5092014;28;20052;-48
2020/12/03 01:45:43;;;;;;;63.50;27.30;;;;;;;-1.14;75.05;95145.56;5091319;28;20044;-47
2020/12/03 01:48:37;;;;;;;55.97;24.90;;;;;;;-1.31;75.84;95145.16;5091656;28;20087;-50
2020/12/03 01:51:25;;;;;;;57.13;24.52;;;;;;;-1.16;75.12;95136.31;5090441;28;20048;-45
2020/12/03 01:53:58;;;;;;;61.67;26.48;;;;;;;-1.15;75.13;95149.31;5090124;28;20048;-47
2020/12/03 01:56:43;;;;;;;62.45;25.25;;;;;;;-1.23;75.24;95147.25;5090857;28;20082;-50
2020/12/03 01:59:10;;;;;;;65.55;25.35;;;;;;;-1.33;75.67;95157.91;5091695;28;20518;-46
2020/12/03 02:01:37;;;;;;;58.03;27.13;;;;;;;-1.28;75.39;95136.66;5091604;28;20048;-48
2020/12/03 02:04:04;;;;;;;62.70;26.67;;;;;;;-1.22;74.91;95146.97;5091457;28;20132;-49
2020/12/03 02:06:34;;;;;;;58.33;24.92;;;;;;;-1.37;75.44;95140.97;5089668;28;20138;-49
2020/12/03 02:09:02;;;;;;;57.15;25.17;;;;;;;-1.18;74.74;95131.28;5091409;28;20131;-47
2020/12/03 02:11:29;;;;;;;54.53;24.63;;;;;;;-1.23;74.53;95131.31;5091363;28;20140;-46
2020/12/03 02:13:59;;;;;;;59.55;26.30;;;;;;;-1.05;74.30;95125.31;5091267;28;20125;-46
2020/12/03 02:16:30;;;;;;;56.80;26.33;;;;;;;-1.21;74.13;95129.97;5090606;28;20101;-47
2020/12/03 02:18:56;;;;;;;52.92;23.48;;;;;;;-1.27;74.24;95130.28;5091509;28;20054;-48
2020/12/03 02:21:24;;;;;;;46.22;21.63;;;;;;;-1.24;72.95;95124.41;5091151;28;20074;-53
2020/12/03 02:23:50;;;;;;;43.85;21.00;;;;;;;-1.27;72.97;95128.44;5091049;28;20052;-50
2020/12/03 02:26:17;;;;;;;55.80;22.67;;;;;;;-1.42;73.70;95123.22;5090488;28;20459;-52
2020/12/03 02:28:44;;;;;;;47.72;21.60;;;;;;;-1.26;73.31;95132.66;5090875;28;20506;-51
2020/12/03 02:31:11;;;;;;;49.35;23.63;;;;;;;-1.26;72.75;95127.34;5093047;28;20062;-49
2020/12/03 02:33:38;;;;;;;47.40;21.63;;;;;;;-1.32;72.56;95107.22;5091081;28;20086;-47
2020/12/03 02:36:06;;;;;;;46.72;19.90;;;;;;;-1.41;72.18;95119.50;5090391;28;20048;-47
2020/12/03 02:38:32;;;;;;;43.97;20.55;;;;;;;-1.22;71.55;95117.75;5090911;28;20048;-46
2020/12/03 02:41:00;;;;;;;44.75;20.20;;;;;;;-0.99;70.92;95102.19;5090658;28;20048;-46
2020/12/03 02:43:28;;;;;;;41.33;17.88;;;;;;;-0.89;70.09;95103.97;5094850;28;20566;-49
2020/12/03 02:45:55;;;;;;;39.72;18.63;;;;;;;-0.87;69.85;95105.28;5094130;28;20466;-49
2020/12/03 02:48:22;;;;;;;46.15;17.45;;;;;;;-1.02;69.75;95100.09;5094846;28;20440;-49
2020/12/03 02:50:48;;;;;;;43.22;19.38;;;;;;;-1.15;70.04;95095.44;5095170;28;20094;-50
2020/12/03 02:53:16;;;;;;;45.70;20.20;;;;;;;-1.24;70.98;95103.19;5094999;28;20051;-49
2020/12/03 02:55:42;;;;;;;40.40;17.95;;;;;;;-1.04;70.53;95102.22;5092346;28;20564;-48
2020/12/03 02:58:09;;;;;;;43.80;19.00;;;;;;;-0.93;69.63;95103.72;5094761;28;20135;-46
2020/12/03 03:00:35;;;;;;;36.63;17.23;;;;;;;-1.20;69.21;95126.25;5094636;28;20390;-46
2020/12/03 03:03:02;;;;;;;35.60;17.30;;;;;;;-1.02;69.46;95105.41;5094426;28;20118;-51
2020/12/03 03:05:28;;;;;;;41.50;17.55;;;;;;;-0.91;68.64;95090.97;5093689;28;20128;-46
2020/12/03 03:07:54;;;;;;;37.33;17.00;;;;;;;-1.05;69.05;95104.09;5094911;28;20131;-47
2020/12/03 03:10:22;;;;;;;37.35;15.85;;;;;;;-1.06;69.10;95099.84;5094414;28;20505;-47
2020/12/03 03:12:51;;;;;;;40.97;18.92;;;;;;;-1.14;69.99;95094.34;5094572;28;20059;-47
2020/12/03 03:15:18;;;;;;;38.88;17.40;;;;;;;-1.07;70.28;95092.16;5093726;28;20055;-49
2020/12/03 03:17:45;;;;;;;36.00;16.88;;;;;;;-0.81;69.28;95058.22;5094258;28;20125;-49
2020/12/03 03:20:14;;;;;;;38.33;17.65;;;;;;;-0.68;68.37;95072.66;5094113;28;20118;-49
2020/12/03 03:22:42;;;;;;;42.92;18.60;;;;;;;-0.74;68.69;95079.91;5094044;28;20513;-50
2020/12/03 03:25:09;;;;;;;39.25;17.95;;;;;;;-0.69;69.09;95079.06;5093868;28;20044;-46
2020/12/03 03:27:36;;;;;;;43.42;19.92;;;;;;;-0.77;69.30;95075.16;5093270;28;20052;-53
2020/12/03 03:30:07;;;;;;;40.45;19.58;;;;;;;-0.47;68.42;95076.69;5093719;28;20129;-47
2020/12/03 03:32:34;;;;;;;37.10;17.67;;;;;;;-0.74;68.64;95048.84;5094057;28;20537;-47
2020/12/03 03:35:01;;;;;;;39.83;18.05;;;;;;;-0.81;69.62;95053.69;5093668;28;20048;-49
2020/12/03 03:37:27;;;;;;;44.75;18.95;;;;;;;-0.97;70.38;95044.28;5093208;28;20082;-46
2020/12/03 03:39:54;;;;;;;39.30;17.33;;;;;;;-0.92;69.46;95051.41;5092518;28;20470;-48
2020/12/03 03:42:20;;;;;;;43.35;19.33;;;;;;;-0.78;69.95;95058.44;5093906;28;20079;-46
2020/12/03 03:44:46;;;;;;;42.17;20.13;;;;;;;-0.71;69.40;95058.09;5093750;28;20151;-49
2020/12/03 03:47:14;;;;;;;43.35;20.27;;;;;;;-0.59;69.50;95061.13;5092843;28;20465;-49
2020/12/03 03:49:40;;;;;;;39.88;18.63;;;;;;;-0.54;69.14;95057.66;5093885;28;20434;-48
2020/12/03 03:52:07;;;;;;;42.33;18.42;;;;;;;-0.53;69.48;95056.56;5093332;28;20558;-52
2020/12/03 03:54:33;;;;;;;43.95;20.38;;;;;;;-0.65;69.46;95058.81;5093392;28;20044;-51
2020/12/03 03:56:59;;;;;;;43.40;19.83;;;;;;;-0.49;69.46;95038.97;5092760;28;20159;-48
2020/12/03 03:59:26;;;;;;;47.58;19.20;;;;;;;-0.44;68.80;95035.50;5093165;28;20513;-50
2020/12/03 04:01:53;;;;;;;43.15;19.92;;;;;;;-0.47;69.14;95015.59;5093176;28;20071;-49
2020/12/03 04:04:19;;;;;;;48.03;20.98;;;;;;;-0.39;69.15;95011.50;5093120;28;20074;-48
2020/12/03 04:06:46;;;;;;;46.80;21.48;;;;;;;-0.46;68.92;95011.84;5097120;22;20052;-50
2020/12/03 04:09:12;;;;;;;41.53;19.88;;;;;;;-0.91;70.35;94982.09;5073289;28;20072;-50
2020/12/03 04:11:39;;;;;;;44.03;18.90;;;;;;;-0.79;70.33;94979.81;5073236;28;20487;-54
2020/12/03 04:14:05;;;;;;;47.70;20.02;;;;;;;-0.85;70.51;94998.75;5072264;28;20159;-51
2020/12/03 04:16:32;;;;;;;50.45;20.15;;;;;;;-0.92;70.76;94985.81;5072037;28;20044;-53
2020/12/03 04:18:58;;;;;;;44.35;19.83;;;;;;;-0.65;70.35;95001.19;5073277;28;20463;-50
2020/12/03 04:21:25;;;;;;;46.53;20.98;;;;;;;-0.62;69.76;94978.56;5073787;28;20055;-53
2020/12/03 04:23:52;;;;;;;44.75;20.67;;;;;;;-0.74;70.48;94985.09;5072873;28;20048;-53
2020/12/03 04:26:18;;;;;;;47.78;20.63;;;;;;;-0.82;71.16;94996.31;5072298;28;20052;-50
2020/12/03 04:28:45;;;;;;;42.25;19.02;;;;;;;-0.71;70.88;94986.38;5072760;28;20510;-54
2020/12/03 04:31:12;;;;;;;47.45;20.77;;;;;;;-0.35;70.15;95005.34;5072771;28;20366;-52
2020/12/03 04:33:38;;;;;;;48.83;21.10;;;;;;;-0.24;69.33;95000.66;5072607;28;20140;-54
2020/12/03 04:36:05;;;;;;;44.30;19.88;;;;;;;-0.31;69.58;94998.38;5069771;28;20122;-51
2020/12/03 04:38:32;;;;;;;41.10;17.20;;;;;;;-0.26;69.43;95000.16;5072639;28;20398;-52
2020/12/03 04:40:59;;;;;;;44.75;20.73;;;;;;;-0.03;68.98;94987.91;5073678;28;20135;-49
2020/12/03 04:43:38;;;;;;;47.75;20.63;;;;;;;-0.04;68.37;94989.75;5073884;28;20108;-53
2020/12/03 04:46:33;;;;;;;46.08;19.20;;;;;;;0.02;68.43;94997.66;5072182;28;20501;-52
2020/12/03 04:49:24;;;;;;;44.35;20.55;;;;;;;-0.01;68.66;94986.50;5071437;28;20084;-45
2020/12/03 04:51:55;;;;;;;43.72;18.75;;;;;;;0.03;68.46;94994.72;5071240;28;20060;-46
2020/12/03 04:54:41;;;;;;;46.35;20.27;;;;;;;-0.05;68.78;94984.72;5070523;28;20049;-46
2020/12/03 04:57:29;;;;;;;41.40;19.13;;;;;;;-0.11;69.21;94976.03;5070110;28;20162;-43
2020/12/03 05:00:17;;;;;;;42.00;19.38;;;;;;;-0.16;69.40;94983.28;5071150;28;20076;-47
2020/12/03 05:03:01;;;;;;;38.45;17.48;;;;;;;-0.01;68.91;94977.75;5071691;28;20052;-47
2020/12/03 05:05:50;;;;;;;46.15;20.40;;;;;;;0.08;68.65;94977.91;5070466;28;20052;-47
2020/12/03 05:08:29;;;;;;;43.38;18.98;;;;;;;0.02;69.06;94971.84;5071268;28;20052;-47
2020/12/03 05:10:55;;;;;;;43.25;19.20;;;;;;;0.00;68.68;94966.06;5070093;28;20059;-47
2020/12/03 05:13:29;;;;;;;44.30;18.48;;;;;;;0.01;68.77;94972.94;5071522;28;20102;-50
2020/12/03 05:16:00;;;;;;;40.85;19.00;;;;;;;0.21;68.40;94969.97;5071384;28;20076;-48
2020/12/03 05:18:43;;;;;;;41.00;18.08;;;;;;;0.14;68.84;94956.25;5071636;28;20257;-47
2020/12/03 05:21:14;;;;;;;45.88;19.33;;;;;;;0.26;68.35;94947.84;5071481;28;20056;-49
2020/12/03 05:23:41;;;;;;;44.63;18.85;;;;;;;0.36;67.79;94946.88;5071559;28;20125;-45
2020/12/03 05:26:22;;;;;;;45.05;19.67;;;;;;;0.33;68.00;94947.47;5070602;28;20049;-46
2020/12/03 05:28:53;;;;;;;45.67;19.42;;;;;;;0.38;67.84;94961.44;5071360;28;20056;-45
2020/12/03 05:31:33;;;;;;;42.88;19.50;;;;;;;0.42;67.62;94972.31;5071219;28;20523;-47
2020/12/03 05:34:13;;;;;;;40.55;18.98;;;;;;;0.22;68.08;94979.53;5071016;28;20130;-45
2020/12/03 05:36:58;;;;;;;40.33;18.63;;;;;;;0.27;68.62;94991.97;5070452;28;20127;-45
2020/12/03 05:39:37;;;;;;;42.72;19.52;;;;;;;0.34;68.17;94987.06;5071165;28;20068;-46
2020/12/03 05:42:06;;;;;;;38.53;19.00;;;;;;;0.45;67.37;94982.38;5071063;28;20056;-46
2020/12/03 05:44:43;;;;;;;43.67;18.55;;;;;;;0.41;67.70;94968.06;5069905;28;20131;-47
2020/12/03 05:47:25;;;;;;;41.95;19.50;;;;;;;0.43;67.99;94963.25;5071012;28;20052;-45
2020/12/03 05:50:02;;;;;;;41.60;18.70;;;;;;;0.40;67.96;94947.88;5070799;28;20052;-50
2020/12/03 05:52:28;;;;;;;42.90;19.20;;;;;;;0.38;67.96;94952.69;5072022;28;20055;-53
2020/12/03 05:55:05;;;;;;;41.30;19.27;;;;;;;0.33;68.32;94952.78;5072092;28;20114;-48
2020/12/03 05:57:38;;;;;;;43.30;18.13;;;;;;;0.41;67.93;94965.41;5071707;28;20053;-51
2020/12/03 06:00:24;;;;;;;44.05;19.38;;;;;;;0.47;67.93;94970.34;5072388;28;20052;-44
2020/12/03 06:03:28;;;;;;;39.70;17.95;;;;;;;0.59;67.12;94967.25;5070883;28;20519;-47
2020/12/03 06:06:11;;;;;;;40.30;18.42;;;;;;;0.32;68.01;94975.13;5069118;28;20075;-45
2020/12/03 06:09:07;;;;;;;42.25;18.83;;;;;;;0.29;68.38;94963.19;5070806;28;20083;-45
2020/12/03 06:11:37;;;;;;;35.45;17.60;;;;;;;0.15;68.29;94973.00;5061722;28;20063;-49
2020/12/03 06:14:16;;;;;;;41.47;18.20;;;;;;;0.29;68.24;94973.03;5071025;28;20052;-44
2020/12/03 06:17:02;;;;;;;43.70;19.40;;;;;;;0.35;68.16;94971.88;5072300;28;20056;-46
2020/12/03 06:19:47;;;;;;;43.40;17.95;;;;;;;0.41;67.80;94976.06;5075025;28;20079;-44
2020/12/03 06:22:39;;;;;;;37.70;18.17;;;;;;;0.49;67.52;94978.06;5075206;28;20343;-50
2020/12/03 06:25:34;;;;;;;41.35;18.02;;;;;;;0.58;67.24;94962.19;5074670;28;20052;-48
2020/12/03 06:28:31;;;;;;;44.13;19.52;;;;;;;0.48;67.62;94963.16;5074484;28;20083;-47
2020/12/03 06:31:25;;;;;;;40.30;17.63;;;;;;;0.55;67.08;94958.25;5074665;28;20076;-47
2020/12/03 06:33:59;;;;;;;45.92;19.98;;;;;;;0.33;67.74;94942.13;5074331;28;20123;-46
2020/12/03 06:36:42;;;;;;;43.90;20.23;;;;;;;0.46;67.61;94950.16;5073518;28;20127;-49
2020/12/03 06:39:18;;;;;;;44.13;19.33;;;;;;;0.59;67.04;94961.13;5074310;28;20064;-45
2020/12/03 06:41:53;;;;;;;39.65;19.38;;;;;;;0.65;66.79;94960.75;5073004;28;20072;-51
2020/12/03 06:44:25;;;;;;;40.85;18.75;;;;;;;0.59;66.95;94966.47;5073152;28;20196;-51
2020/12/03 06:47:33;;;;;;;42.55;19.30;;;;;;;0.79;66.76;94975.97;5073234;28;20286;-50
2020/12/03 06:50:27;;;;;;;41.10;19.45;;;;;;;0.69;66.70;94983.03;5072933;28;20102;-51
2020/12/03 06:53:26;;;;;;;38.97;18.58;;;;;;;0.56;67.34;94977.69;5074453;28;20049;-49
2020/12/03 06:56:30;;;;;;;43.67;21.58;;;;;;;0.57;67.77;94984.56;5059476;28;20054;-50
2020/12/03 06:59:09;;;;;;;44.20;21.00;;;;;;;0.58;67.48;94976.28;5073875;28;20048;-48
2020/12/03 07:01:58;;;;;;;43.53;20.45;;;;;;;0.70;67.41;94978.50;5073948;28;20079;-49
2020/12/03 07:04:49;;;;;;;45.03;22.85;;;;;;;0.69;67.44;94980.38;5074193;28;20131;-50
2020/12/03 07:07:33;;;;;;;45.17;23.10;;;;;;;0.75;67.12;94973.09;5072773;28;20076;-45
2020/12/03 07:10:25;;;;;;;48.38;22.08;;;;;;;0.70;67.33;94968.63;5073944;28;20461;-45
2020/12/03 07:13:23;;;;;;;41.95;20.45;;;;;;;0.71;67.19;94964.09;5074065;28;20127;-50
2020/12/03 07:16:04;;;;;;;43.10;20.13;;;;;;;0.70;66.99;94968.63;5059981;28;20557;-45
2020/12/03 07:18:49;;;;;;;40.75;21.52;;;;;;;0.74;66.86;94954.75;5073716;28;20044;-49
2020/12/03 07:21:46;;;;;;;38.97;17.80;;;;;;;0.70;66.68;94965.97;5072138;28;20048;-48
2020/12/03 07:24:23;;;;;;;41.80;18.58;;;;;;;0.55;67.77;94949.47;5073612;28;20125;-49
2020/12/03 07:27:24;;;;;;;39.53;18.92;;;;;;;0.54;68.13;94947.91;5072586;28;20697;-45
2020/12/03 07:30:00;;;;;;;40.55;18.70;;;;;;;0.69;67.78;94945.75;5073710;28;20064;-43
2020/12/03 07:32:52;;;;;;;39.80;19.05;;;;;;;0.64;67.92;94953.81;5073364;28;20076;-45
2020/12/03 07:35:43;;;;;;;40.78;18.77;;;;;;;0.91;67.51;94955.75;5073698;28;20059;-53
2020/12/03 07:38:19;;;;;;;40.83;20.80;;;;;;;0.94;66.73;94943.72;5074681;28;20126;-49
2020/12/03 07:40:53;;;;;;;42.95;20.25;;;;;;;0.99;66.46;94953.50;5073581;28;20426;-49
2020/12/03 07:43:28;;;;;;;41.47;18.58;;;;;;;1.08;66.33;94954.38;5073322;28;20486;-45
2020/12/03 07:45:55;;;;;;;43.25;18.85;;;;;;;0.87;66.40;94953.97;5072756;28;20045;-44
2020/12/03 07:48:30;;;;;;;37.10;18.88;;;;;;;0.72;67.04;94957.72;5073266;28;20562;-45
2020/12/03 07:51:02;;;;;;;36.67;19.15;;;;;;;0.88;66.97;94956.34;5073217;28;20052;-44
2020/12/03 07:53:33;;;;;;;35.35;18.73;;;;;;;0.85;66.54;94948.16;5073034;28;20057;-45
2020/12/03 07:56:31;;;;;;;35.20;17.13;;;;;;;0.77;66.33;94948.81;5072639;28;20053;-45
2020/12/03 07:59:23;;;;;;;36.17;17.92;;;;;;;0.56;67.51;94962.50;5073158;28;20087;-46
2020/12/03 08:01:55;;;;;;;36.17;18.38;;;;;;;0.58;67.46;94955.00;5071786;28;20101;-50
2020/12/03 08:04:31;;;;;;;32.10;16.65;;;;;;;0.61;66.76;94938.44;5073389;28;20052;-46
2020/12/03 08:07:04;;;;;;;33.47;17.05;;;;;;;0.89;66.23;94947.25;5072080;28;20076;-44
2020/12/03 08:09:37;;;;;;;32.97;16.75;;;;;;;0.93;65.76;94950.91;5072803;28;20141;-44
2020/12/03 08:12:09;;;;;;;35.65;16.65;;;;;;;0.64;66.92;94953.03;5072977;28;20143;-45
2020/12/03 08:14:42;;;;;;;34.00;16.77;;;;;;;0.57;67.11;94948.09;5073153;28;20457;-45
2020/12/03 08:17:17;;;;;;;32.80;17.30;;;;;;;0.73;67.13;94939.84;5072127;28;20484;-45
2020/12/03 08:19:47;;;;;;;34.38;16.65;;;;;;;0.76;67.06;94941.94;5071251;28;20041;-46
2020/12/03 08:22:27;;;;;;;31.90;17.20;;;;;;;0.70;67.29;94939.34;5073455;28;20116;-53
2020/12/03 08:25:04;;;;;;;32.75;17.42;;;;;;;0.77;67.38;94935.50;5073349;28;20123;-51
2020/12/03 08:27:31;;;;;;;33.15;17.08;;;;;;;0.85;66.96;94938.28;5072674;28;20055;-54
2020/12/03 08:29:57;;;;;;;32.13;16.80;;;;;;;0.83;66.82;94929.81;5072159;28;20048;-51
2020/12/03 08:32:23;;;;;;;33.42;16.60;;;;;;;0.82;66.82;94932.78;5073635;28;20132;-55
2020/12/03 08:34:50;;;;;;;34.22;16.50;;;;;;;0.55;67.77;94920.97;5073407;28;20076;-51
2020/12/03 08:37:22;;;;;;;31.17;16.75;;;;;;;0.74;67.02;94923.56;5072129;28;20062;-54
2020/12/03 08:39:53;;;;;;;36.40;17.83;;;;;;;0.44;67.80;94927.56;5072453;28;20056;-53
2020/12/03 08:42:20;;;;;;;31.63;17.40;;;;;;;0.53;68.18;94931.16;5072595;28;20391;-52
2020/12/03 08:44:48;;;;;;;34.83;18.52;;;;;;;0.70;67.45;94926.03;5073223;28;20101;-53
2020/12/03 08:47:41;;;;;;;32.75;16.45;;;;;;;1.09;66.61;94927.44;5072432;28;20053;-50
2020/12/03 08:50:14;;;;;;;33.08;17.05;;;;;;;1.22;65.66;94930.41;5073158;28;20083;-54
2020/12/03 08:52:41;;;;;;;34.78;18.30;;;;;;;0.87;66.99;94924.66;5073422;28;20079;-54
2020/12/03 08:55:09;;;;;;;35.15;17.38;;;;;;;1.00;66.16;94899.91;5073699;28;20413;-51
2020/12/03 08:57:39;;;;;;;31.70;16.45;;;;;;;0.96;66.27;94912.25;5071816;28;20048;-51
2020/12/03 09:00:08;;;;;;;32.65;17.05;;;;;;;0.90;67.21;94916.09;5073065;28;20049;-56
2020/12/03 09:02:36;;;;;;;29.80;16.58;;;;;;;1.20;65.40;94919.25;5072876;28;20072;-54
2020/12/03 09:05:03;;;;;;;33.13;16.88;;;;;;;1.20;65.96;94911.25;5073175;28;20045;-55
2020/12/03 09:07:32;;;;;;;33.97;16.85;;;;;;;1.25;65.76;94911.16;5071062;28;20056;-50
2020/12/03 09:09:59;;;;;;;30.67;17.17;;;;;;;1.28;65.76;94902.56;5073049;28;20416;-50
2020/12/03 09:12:34;;;;;;;28.63;15.93;;;;;;;1.35;65.60;94898.41;5073129;28;20505;-54
2020/12/03 09:15:03;;;;;;;29.65;16.48;;;;;;;1.46;65.20;94896.31;5073067;28;20052;-51
2020/12/03 09:17:39;;;;;;;31.35;17.65;;;;;;;1.61;65.19;94900.53;5070653;28;20076;-49
2020/12/03 09:20:08;;;;;;;30.95;17.17;;;;;;;1.78;64.30;94897.22;5071736;28;20131;-49
2020/12/03 09:22:39;;;;;;;27.98;17.13;;;;;;;1.72;63.98;94883.19;5071516;28;20049;-49
2020/12/03 09:25:11;;;;;;;31.63;15.95;;;;;;;1.32;64.48;94896.34;5071503;28;20460;-44
2020/12/03 09:27:43;;;;;;;31.15;15.48;;;;;;;1.26;65.36;94899.41;5071410;28;20381;-46
2020/12/03 09:30:21;;;;;;;28.17;16.02;;;;;;;1.39;65.03;94899.38;5071550;28;20056;-49
2020/12/03 09:32:57;;;;;;;29.27;16.80;;;;;;;1.53;65.28;94899.38;5071459;28;20058;-46
2020/12/03 09:35:25;;;;;;;28.60;15.85;;;;;;;1.69;64.54;94889.16;5070795;28;20132;-51
2020/12/03 09:37:57;;;;;;;26.25;15.35;;;;;;;1.74;64.17;94896.25;5072738;28;20514;-54
2020/12/03 09:40:25;;;;;;;31.43;18.53;;;;;;;1.71;63.98;94894.19;5072240;28;20052;-55
2020/12/03 09:42:53;;;;;;;30.23;16.25;;;;;;;1.58;64.06;94888.59;5072732;28;20045;-52
2020/12/03 09:45:31;;;;;;;31.30;17.48;;;;;;;1.45;64.89;94886.75;5072144;28;20057;-53
2020/12/03 09:47:59;;;;;;;30.88;15.65;;;;;;;1.34;65.08;94890.72;5072299;28;20063;-48
2020/12/03 09:50:26;;;;;;;32.78;16.02;;;;;;;1.42;64.81;94871.34;5071479;28;20090;-47
2020/12/03 09:52:54;;;;;;;28.23;17.13;;;;;;;1.61;64.57;94869.31;5071638;28;20054;-46
2020/12/03 09:55:21;;;;;;;32.90;16.23;;;;;;;1.65;63.73;94869.50;5070536;28;20124;-50
2020/12/03 09:57:55;;;;;;;29.42;15.95;;;;;;;1.56;63.96;94857.97;5071649;28;20052;-49
2020/12/03 10:00:27;;;;;;;30.30;15.77;;;;;;;1.31;64.70;94846.00;5071529;28;20056;-50
2020/12/03 10:02:54;;;;;;;28.67;15.10;;;;;;;1.62;64.66;94862.88;5072372;28;20079;-50
2020/12/03 10:05:44;;;;;;;30.48;16.17;;;;;;;1.69;63.61;94845.69;5071496;28;20131;-50
2020/12/03 10:08:19;;;;;;;26.17;14.38;;;;;;;1.77;63.58;94840.44;5095317;22;20115;-46
2020/12/03 10:10:58;;;;;;;28.88;16.83;;;;;;;1.89;63.33;94831.91;5091583;28;20550;-50
2020/12/03 10:13:46;;;;;;;30.83;17.20;;;;;;;1.99;63.55;94836.97;5091497;28;20040;-44
2020/12/03 10:16:21;;;;;;;27.23;16.15;;;;;;;1.96;63.28;94821.59;5090912;28;20459;-46
2020/12/03 10:18:52;;;;;;;25.63;14.35;;;;;;;1.94;62.31;94799.75;5091585;28;20140;-48
2020/12/03 10:21:21;;;;;;;25.73;13.55;;;;;;;1.88;61.05;94811.63;5091410;28;20497;-49
2020/12/03 10:24:00;;;;;;;27.55;15.20;;;;;;;1.86;62.27;94811.16;5091696;28;20366;-44
2020/12/03 10:26:36;;;;;;;29.70;15.32;;;;;;;1.86;62.82;94808.50;5089421;28;20040;-52
2020/12/03 10:29:36;;;;;;;26.25;14.82;;;;;;;2.12;62.01;94808.66;5090152;28;20058;-47
2020/12/03 10:32:15;;;;;;;29.38;15.93;;;;;;;2.17;62.14;94795.16;5091534;28;20083;-44
2020/12/03 10:34:47;;;;;;;27.58;16.30;;;;;;;2.16;61.72;94787.47;5091475;28;20440;-46
2020/12/03 10:37:25;;;;;;;25.48;14.48;;;;;;;2.39;61.29;94785.53;5090491;28;20520;-45
2020/12/03 10:39:55;;;;;;;28.30;16.48;;;;;;;2.40;61.10;94774.53;5091487;28;20139;-46
2020/12/03 10:42:27;;;;;;;32.97;17.17;;;;;;;2.44;60.41;94754.16;5090881;28;20143;-47
2020/12/03 10:45:04;;;;;;;35.22;18.02;;;;;;;2.66;60.65;94752.47;5091128;28;20467;-49
2020/12/03 10:47:37;;;;;;;27.67;15.55;;;;;;;2.77;60.16;94762.56;5090372;28;20529;-44
2020/12/03 10:50:05;;;;;;;27.00;15.48;;;;;;;2.84;59.82;94756.78;5090987;28;20048;-53
2020/12/03 10:52:32;;;;;;;24.40;14.95;;;;;;;2.87;59.42;94750.81;5091010;28;20176;-50
2020/12/03 10:55:00;;;;;;;26.42;15.07;;;;;;;2.92;59.06;94745.31;5089466;28;20139;-51
2020/12/03 10:57:32;;;;;;;26.42;15.07;;;;;;;2.75;59.81;94714.00;5090458;28;20056;-50
2020/12/03 11:00:01;;;;;;;29.58;17.00;;;;;;;2.86;60.01;94729.72;5091307;28;20058;-48
2020/12/03 11:02:42;;;;;;;25.50;14.25;;;;;;;2.81;59.94;94728.00;5092419;28;20058;-49
2020/12/03 11:05:11;;;;;;;23.27;14.10;;;;;;;2.78;59.79;94720.63;5094756;28;20127;-50
2020/12/03 11:07:39;;;;;;;23.10;14.55;;;;;;;2.81;60.01;94722.66;5094004;28;20055;-49
2020/12/03 11:10:06;;;;;;;25.00;14.63;;;;;;;2.46;60.32;94703.13;5094505;28;20063;-50
2020/12/03 11:12:33;;;;;;;25.88;15.93;;;;;;;2.55;60.42;94710.06;5094791;28;20130;-50
2020/12/03 11:15:02;;;;;;;23.92;14.15;;;;;;;2.90;60.04;94710.13;5076789;28;20130;-51
2020/12/03 11:17:32;;;;;;;25.70;15.38;;;;;;;3.33;58.71;94690.63;5093078;28;20044;-49
2020/12/03 11:20:20;;;;;;;22.05;13.77;;;;;;;3.69;57.02;94682.22;5093417;28;20044;-44
2020/12/03 11:22:56;;;;;;;30.00;14.88;;;;;;;4.44;55.18;94674.50;5095013;28;20048;-47
2020/12/03 11:25:27;;;;;;;23.52;13.82;;;;;;;4.34;53.99;94669.53;5094231;28;20064;-50
2020/12/03 11:28:00;;;;;;;31.38;14.77;;;;;;;4.12;54.86;94672.47;5094163;28;20048;-50
2020/12/03 11:30:28;;;;;;;22.00;13.80;;;;;;;4.33;54.18;94667.97;5094509;28;20044;-48
2020/12/03 11:32:56;;;;;;;23.35;14.55;;;;;;;4.75;52.82;94662.69;5092626;28;20503;-50
2020/12/03 11:35:33;;;;;;;21.08;12.88;;;;;;;4.79;51.55;94658.22;5093832;28;20412;-48
2020/12/03 11:38:03;;;;;;;23.30;12.65;;;;;;;4.69;51.82;94653.25;5093745;28;20144;-45
2020/12/03 11:40:42;;;;;;;23.35;13.25;;;;;;;5.43;50.11;94654.41;5094591;28;20447;-49
2020/12/03 11:46:50;;;;;;;20.98;13.27;;;;;;;5.71;49.06;94654.56;5092918;28;20048;-49
2020/12/03 11:48:39;;;;;;;23.42;13.65;;;;;;;5.39;49.90;94648.09;5088213;28;20082;-44
2020/12/03 11:51:05;;;;;;;25.33;14.65;;;;;;;5.35;49.76;94650.66;5093872;28;20082;-47
2020/12/03 11:53:32;;;;;;;20.55;12.25;;;;;;;5.28;48.72;94628.97;5093641;28;20055;-46